sensor_id;sensor_type;location;lat;lon;timestamp;P1;durP1;ratioP1;P2;durP2;ratioP2
13163;SDS011;6647;53.688;10.746;2023-05-08T00:00:27;2.40;;;2.20;;
13163;SDS011;6647;53.688;10.746;2023-05-08T00:01:48;4.22;;;2.00;;
13163;SDS011;6647;53.688;10.746;2023-05-08T00:03:09;2.13;;;1.92;;
13163;SDS011;6647;53.688;10.746;2023-05-08T00:04:30;1.80;;;1.70;;
13163;SDS011;6647;53.688;10.746;2023-05-08T00:05:51;5.32;;;2.05;;
13163;SDS011;6647;53.688;10.746;2023-05-08T00:07:14;4.88;;;2.13;;
13163;SDS011;6647;53.688;10.746;2023-05-08T00:08:35;1.95;;;1.85;;
13163;SDS011;6647;53.688;10.746;2023-05-08T00:09:56;2.03;;;1.92;;
13163;SDS011;6647;53.688;10.746;2023-05-08T00:11:17;2.53;;;2.05;;
13163;SDS011;6647;53.688;10.746;2023-05-08T00:12:38;2.50;;;2.30;;
13163;SDS011;6647;53.688;10.746;2023-05-08T00:13:58;2.60;;;2.30;;
13163;SDS011;6647;53.688;10.746;2023-05-08T00:15:19;2.40;;;2.20;;
13163;SDS011;6647;53.688;10.746;2023-05-08T00:16:40;3.05;;;2.00;;
13163;SDS011;6647;53.688;10.746;2023-05-08T00:18:01;2.58;;;2.30;;
13163;SDS011;6647;53.688;10.746;2023-05-08T00:19:22;1.83;;;1.73;;
13163;SDS011;6647;53.688;10.746;2023-05-08T00:20:43;2.30;;;2.10;;
13163;SDS011;6647;53.688;10.746;2023-05-08T00:22:04;2.80;;;2.00;;
13163;SDS011;6647;53.688;10.746;2023-05-08T00:23:24;2.42;;;2.22;;
13163;SDS011;6647;53.688;10.746;2023-05-08T00:24:45;2.50;;;2.30;;
13163;SDS011;6647;53.688;10.746;2023-05-08T00:26:06;2.35;;;2.13;;
13163;SDS011;6647;53.688;10.746;2023-05-08T00:27:27;2.25;;;2.05;;
13163;SDS011;6647;53.688;10.746;2023-05-08T00:28:48;4.57;;;2.08;;
13163;SDS011;6647;53.688;10.746;2023-05-08T00:30:09;2.20;;;2.10;;
13163;SDS011;6647;53.688;10.746;2023-05-08T00:31:30;2.13;;;2.03;;
13163;SDS011;6647;53.688;10.746;2023-05-08T00:32:51;2.20;;;2.10;;
13163;SDS011;6647;53.688;10.746;2023-05-08T00:34:12;3.53;;;2.35;;
13163;SDS011;6647;53.688;10.746;2023-05-08T00:35:33;4.15;;;2.28;;
13163;SDS011;6647;53.688;10.746;2023-05-08T00:36:54;2.08;;;1.95;;
13163;SDS011;6647;53.688;10.746;2023-05-08T00:38:15;1.90;;;1.80;;
13163;SDS011;6647;53.688;10.746;2023-05-08T00:39:36;2.30;;;2.10;;
13163;SDS011;6647;53.688;10.746;2023-05-08T00:40:57;11.88;;;2.53;;
13163;SDS011;6647;53.688;10.746;2023-05-08T00:42:19;2.30;;;2.15;;
13163;SDS011;6647;53.688;10.746;2023-05-08T00:43:40;2.17;;;2.00;;
13163;SDS011;6647;53.688;10.746;2023-05-08T00:45:01;3.05;;;2.78;;
13163;SDS011;6647;53.688;10.746;2023-05-08T00:46:22;2.20;;;2.10;;
13163;SDS011;6647;53.688;10.746;2023-05-08T00:47:43;3.42;;;3.10;;
13163;SDS011;6647;53.688;10.746;2023-05-08T00:49:04;2.78;;;2.50;;
13163;SDS011;6647;53.688;10.746;2023-05-08T00:50:26;2.80;;;2.50;;
13163;SDS011;6647;53.688;10.746;2023-05-08T00:51:47;2.20;;;2.10;;
13163;SDS011;6647;53.688;10.746;2023-05-08T00:53:10;2.83;;;2.38;;
13163;SDS011;6647;53.688;10.746;2023-05-08T00:54:31;2.50;;;2.30;;
13163;SDS011;6647;53.688;10.746;2023-05-08T00:55:53;4.55;;;2.70;;
13163;SDS011;6647;53.688;10.746;2023-05-08T00:57:14;2.72;;;2.53;;
13163;SDS011;6647;53.688;10.746;2023-05-08T00:58:35;5.38;;;3.00;;
13163;SDS011;6647;53.688;10.746;2023-05-08T00:59:58;2.47;;;2.30;;
13163;SDS011;6647;53.688;10.746;2023-05-08T01:01:20;3.50;;;2.72;;
13163;SDS011;6647;53.688;10.746;2023-05-08T01:02:43;4.15;;;2.90;;
13163;SDS011;6647;53.688;10.746;2023-05-08T01:04:04;2.63;;;2.42;;
13163;SDS011;6647;53.688;10.746;2023-05-08T01:05:28;2.92;;;2.67;;
13163;SDS011;6647;53.688;10.746;2023-05-08T01:06:50;2.65;;;2.45;;
13163;SDS011;6647;53.688;10.746;2023-05-08T01:08:11;2.40;;;2.30;;
13163;SDS011;6647;53.688;10.746;2023-05-08T01:09:32;2.85;;;2.65;;
13163;SDS011;6647;53.688;10.746;2023-05-08T01:10:58;3.22;;;2.90;;
13163;SDS011;6647;53.688;10.746;2023-05-08T01:14:10;2.67;;;2.47;;
13163;SDS011;6647;53.688;10.746;2023-05-08T01:15:42;3.28;;;3.00;;
13163;SDS011;6647;53.688;10.746;2023-05-08T01:17:11;2.42;;;2.28;;
13163;SDS011;6647;53.688;10.746;2023-05-08T01:18:37;3.13;;;2.83;;
13163;SDS011;6647;53.688;10.746;2023-05-08T01:21:49;3.65;;;2.80;;
13163;SDS011;6647;53.688;10.746;2023-05-08T01:23:24;6.68;;;3.35;;
13163;SDS011;6647;53.688;10.746;2023-05-08T01:28:44;3.78;;;3.33;;
13163;SDS011;6647;53.688;10.746;2023-05-08T01:30:18;5.80;;;3.00;;
13163;SDS011;6647;53.688;10.746;2023-05-08T01:33:50;3.22;;;2.90;;
13163;SDS011;6647;53.688;10.746;2023-05-08T01:41:05;4.25;;;3.83;;
13163;SDS011;6647;53.688;10.746;2023-05-08T01:42:32;3.70;;;3.40;;
13163;SDS011;6647;53.688;10.746;2023-05-08T01:44:14;7.10;;;3.90;;
13163;SDS011;6647;53.688;10.746;2023-05-08T01:45:38;4.15;;;3.67;;
13163;SDS011;6647;53.688;10.746;2023-05-08T01:47:02;4.55;;;3.50;;
13163;SDS011;6647;53.688;10.746;2023-05-08T01:48:30;4.22;;;3.80;;
13163;SDS011;6647;53.688;10.746;2023-05-08T01:50:03;4.70;;;3.10;;
13163;SDS011;6647;53.688;10.746;2023-05-08T01:51:31;4.82;;;3.35;;
13163;SDS011;6647;53.688;10.746;2023-05-08T01:53:08;4.70;;;3.75;;
13163;SDS011;6647;53.688;10.746;2023-05-08T01:54:38;3.70;;;3.40;;
13163;SDS011;6647;53.688;10.746;2023-05-08T01:56:04;4.13;;;3.30;;
13163;SDS011;6647;53.688;10.746;2023-05-08T01:57:32;5.10;;;3.95;;
13163;SDS011;6647;53.688;10.746;2023-05-08T01:58:55;3.90;;;3.50;;
13163;SDS011;6647;53.688;10.746;2023-05-08T02:00:18;4.38;;;3.85;;
13163;SDS011;6647;53.688;10.746;2023-05-08T02:01:41;3.88;;;3.45;;
13163;SDS011;6647;53.688;10.746;2023-05-08T02:03:05;4.05;;;3.13;;
13163;SDS011;6647;53.688;10.746;2023-05-08T02:04:27;3.72;;;3.17;;
13163;SDS011;6647;53.688;10.746;2023-05-08T02:05:49;4.90;;;3.08;;
13163;SDS011;6647;53.688;10.746;2023-05-08T02:07:11;3.38;;;3.08;;
13163;SDS011;6647;53.688;10.746;2023-05-08T02:08:32;4.03;;;3.10;;
13163;SDS011;6647;53.688;10.746;2023-05-08T02:09:55;5.60;;;3.30;;
13163;SDS011;6647;53.688;10.746;2023-05-08T02:11:17;3.03;;;2.60;;
13163;SDS011;6647;53.688;10.746;2023-05-08T02:12:38;4.00;;;3.50;;
13163;SDS011;6647;53.688;10.746;2023-05-08T02:14:00;4.70;;;3.13;;
13163;SDS011;6647;53.688;10.746;2023-05-08T02:15:22;3.88;;;3.33;;
13163;SDS011;6647;53.688;10.746;2023-05-08T02:16:45;3.78;;;3.20;;
13163;SDS011;6647;53.688;10.746;2023-05-08T02:18:09;3.42;;;3.17;;
13163;SDS011;6647;53.688;10.746;2023-05-08T02:19:32;3.55;;;3.25;;
13163;SDS011;6647;53.688;10.746;2023-05-08T02:20:55;6.57;;;2.90;;
13163;SDS011;6647;53.688;10.746;2023-05-08T02:22:18;5.88;;;3.40;;
13163;SDS011;6647;53.688;10.746;2023-05-08T02:23:42;3.83;;;3.40;;
13163;SDS011;6647;53.688;10.746;2023-05-08T02:25:06;4.80;;;3.20;;
13163;SDS011;6647;53.688;10.746;2023-05-08T02:26:27;3.75;;;3.20;;
13163;SDS011;6647;53.688;10.746;2023-05-08T02:27:49;5.38;;;4.20;;
13163;SDS011;6647;53.688;10.746;2023-05-08T02:29:12;3.67;;;3.30;;
13163;SDS011;6647;53.688;10.746;2023-05-08T02:30:34;9.73;;;4.55;;
13163;SDS011;6647;53.688;10.746;2023-05-08T02:31:55;3.42;;;3.22;;
13163;SDS011;6647;53.688;10.746;2023-05-08T02:33:17;3.72;;;3.42;;
13163;SDS011;6647;53.688;10.746;2023-05-08T02:34:39;3.72;;;3.50;;
13163;SDS011;6647;53.688;10.746;2023-05-08T02:36:01;5.75;;;4.03;;
13163;SDS011;6647;53.688;10.746;2023-05-08T02:37:23;4.50;;;4.10;;
13163;SDS011;6647;53.688;10.746;2023-05-08T02:38:46;4.32;;;3.88;;
13163;SDS011;6647;53.688;10.746;2023-05-08T02:40:10;4.93;;;4.10;;
13163;SDS011;6647;53.688;10.746;2023-05-08T02:41:33;5.20;;;4.10;;
13163;SDS011;6647;53.688;10.746;2023-05-08T02:42:55;4.45;;;4.05;;
13163;SDS011;6647;53.688;10.746;2023-05-08T02:44:16;3.75;;;3.45;;
13163;SDS011;6647;53.688;10.746;2023-05-08T02:45:43;4.55;;;3.85;;
13163;SDS011;6647;53.688;10.746;2023-05-08T02:48:37;5.60;;;4.63;;
13163;SDS011;6647;53.688;10.746;2023-05-08T02:50:17;4.25;;;3.85;;
13163;SDS011;6647;53.688;10.746;2023-05-08T02:51:46;3.95;;;3.55;;
13163;SDS011;6647;53.688;10.746;2023-05-08T02:53:14;3.70;;;3.40;;
13163;SDS011;6647;53.688;10.746;2023-05-08T02:54:43;4.35;;;3.63;;
13163;SDS011;6647;53.688;10.746;2023-05-08T02:56:17;3.10;;;2.90;;
13163;SDS011;6647;53.688;10.746;2023-05-08T02:57:48;6.72;;;4.07;;
13163;SDS011;6647;53.688;10.746;2023-05-08T03:00:50;5.05;;;4.22;;
13163;SDS011;6647;53.688;10.746;2023-05-08T03:02:34;4.10;;;3.70;;
13163;SDS011;6647;53.688;10.746;2023-05-08T03:04:03;4.30;;;3.90;;
13163;SDS011;6647;53.688;10.746;2023-05-08T03:05:29;4.18;;;3.72;;
13163;SDS011;6647;53.688;10.746;2023-05-08T03:06:52;3.80;;;3.50;;
13163;SDS011;6647;53.688;10.746;2023-05-08T03:08:17;6.43;;;3.80;;
13163;SDS011;6647;53.688;10.746;2023-05-08T03:09:42;5.03;;;3.70;;
13163;SDS011;6647;53.688;10.746;2023-05-08T03:11:17;3.97;;;3.60;;
13163;SDS011;6647;53.688;10.746;2023-05-08T03:12:47;3.85;;;3.55;;
13163;SDS011;6647;53.688;10.746;2023-05-08T03:14:11;4.45;;;3.80;;
13163;SDS011;6647;53.688;10.746;2023-05-08T03:15:45;9.27;;;3.72;;
13163;SDS011;6647;53.688;10.746;2023-05-08T03:17:15;4.05;;;3.40;;
13163;SDS011;6647;53.688;10.746;2023-05-08T03:18:41;3.92;;;3.63;;
13163;SDS011;6647;53.688;10.746;2023-05-08T03:20:13;4.10;;;3.70;;
13163;SDS011;6647;53.688;10.746;2023-05-08T03:21:36;3.80;;;3.50;;
13163;SDS011;6647;53.688;10.746;2023-05-08T03:22:59;4.63;;;3.50;;
13163;SDS011;6647;53.688;10.746;2023-05-08T03:24:23;3.97;;;3.45;;
13163;SDS011;6647;53.688;10.746;2023-05-08T03:25:47;3.83;;;3.40;;
13163;SDS011;6647;53.688;10.746;2023-05-08T03:27:08;5.13;;;4.35;;
13163;SDS011;6647;53.688;10.746;2023-05-08T03:28:29;5.40;;;3.80;;
13163;SDS011;6647;53.688;10.746;2023-05-08T03:29:51;8.55;;;4.00;;
13163;SDS011;6647;53.688;10.746;2023-05-08T03:31:13;4.25;;;3.85;;
13163;SDS011;6647;53.688;10.746;2023-05-08T03:32:40;3.35;;;3.00;;
13163;SDS011;6647;53.688;10.746;2023-05-08T03:34:02;10.27;;;3.78;;
13163;SDS011;6647;53.688;10.746;2023-05-08T03:35:24;4.15;;;3.85;;
13163;SDS011;6647;53.688;10.746;2023-05-08T03:36:46;8.35;;;4.20;;
13163;SDS011;6647;53.688;10.746;2023-05-08T03:38:07;4.32;;;3.92;;
13163;SDS011;6647;53.688;10.746;2023-05-08T03:39:28;4.28;;;3.88;;
13163;SDS011;6647;53.688;10.746;2023-05-08T03:40:49;5.57;;;4.13;;
13163;SDS011;6647;53.688;10.746;2023-05-08T03:42:10;3.67;;;3.38;;
13163;SDS011;6647;53.688;10.746;2023-05-08T03:43:40;4.15;;;3.70;;
13163;SDS011;6647;53.688;10.746;2023-05-08T03:45:01;4.55;;;3.40;;
13163;SDS011;6647;53.688;10.746;2023-05-08T03:46:23;6.13;;;3.80;;
13163;SDS011;6647;53.688;10.746;2023-05-08T03:47:45;4.13;;;3.72;;
13163;SDS011;6647;53.688;10.746;2023-05-08T03:49:07;4.63;;;3.90;;
13163;SDS011;6647;53.688;10.746;2023-05-08T03:50:28;3.67;;;3.05;;
13163;SDS011;6647;53.688;10.746;2023-05-08T03:51:51;6.47;;;3.72;;
13163;SDS011;6647;53.688;10.746;2023-05-08T03:53:14;4.05;;;3.75;;
13163;SDS011;6647;53.688;10.746;2023-05-08T03:54:38;4.30;;;3.90;;
13163;SDS011;6647;53.688;10.746;2023-05-08T03:55:59;5.35;;;3.88;;
13163;SDS011;6647;53.688;10.746;2023-05-08T03:57:23;4.13;;;3.72;;
13163;SDS011;6647;53.688;10.746;2023-05-08T03:58:53;6.47;;;3.95;;
13163;SDS011;6647;53.688;10.746;2023-05-08T04:02:16;5.28;;;3.67;;
13163;SDS011;6647;53.688;10.746;2023-05-08T04:03:55;5.35;;;3.65;;
13163;SDS011;6647;53.688;10.746;2023-05-08T04:05:37;4.45;;;3.72;;
13163;SDS011;6647;53.688;10.746;2023-05-08T04:07:19;4.05;;;3.70;;
13163;SDS011;6647;53.688;10.746;2023-05-08T04:08:46;5.93;;;4.22;;
13163;SDS011;6647;53.688;10.746;2023-05-08T04:10:29;4.50;;;4.10;;
13163;SDS011;6647;53.688;10.746;2023-05-08T04:13:25;4.45;;;4.03;;
13163;SDS011;6647;53.688;10.746;2023-05-08T04:15:01;4.97;;;4.15;;
13163;SDS011;6647;53.688;10.746;2023-05-08T04:16:34;4.25;;;3.85;;
13163;SDS011;6647;53.688;10.746;2023-05-08T04:17:58;4.78;;;4.05;;
13163;SDS011;6647;53.688;10.746;2023-05-08T04:19:26;4.30;;;3.90;;
13163;SDS011;6647;53.688;10.746;2023-05-08T04:20:52;13.05;;;4.18;;
13163;SDS011;6647;53.688;10.746;2023-05-08T04:22:15;4.88;;;4.47;;
13163;SDS011;6647;53.688;10.746;2023-05-08T04:23:39;7.28;;;4.72;;
13163;SDS011;6647;53.688;10.746;2023-05-08T04:25:03;8.55;;;4.50;;
13163;SDS011;6647;53.688;10.746;2023-05-08T04:26:26;7.45;;;3.90;;
13163;SDS011;6647;53.688;10.746;2023-05-08T04:27:48;5.80;;;4.55;;
13163;SDS011;6647;53.688;10.746;2023-05-08T04:29:10;4.60;;;4.20;;
13163;SDS011;6647;53.688;10.746;2023-05-08T04:30:32;4.43;;;4.03;;
13163;SDS011;6647;53.688;10.746;2023-05-08T04:31:53;5.20;;;4.68;;
13163;SDS011;6647;53.688;10.746;2023-05-08T04:33:15;7.82;;;4.30;;
13163;SDS011;6647;53.688;10.746;2023-05-08T04:34:38;4.75;;;4.28;;
13163;SDS011;6647;53.688;10.746;2023-05-08T04:36:02;4.65;;;4.22;;
13163;SDS011;6647;53.688;10.746;2023-05-08T04:37:26;6.75;;;3.97;;
13163;SDS011;6647;53.688;10.746;2023-05-08T04:38:48;4.93;;;4.53;;
13163;SDS011;6647;53.688;10.746;2023-05-08T04:40:09;4.95;;;4.30;;
13163;SDS011;6647;53.688;10.746;2023-05-08T04:41:30;4.55;;;4.15;;
13163;SDS011;6647;53.688;10.746;2023-05-08T04:42:52;4.78;;;4.38;;
13163;SDS011;6647;53.688;10.746;2023-05-08T04:44:13;8.10;;;4.47;;
13163;SDS011;6647;53.688;10.746;2023-05-08T04:45:34;5.55;;;4.43;;
13163;SDS011;6647;53.688;10.746;2023-05-08T04:46:55;6.80;;;4.18;;
13163;SDS011;6647;53.688;10.746;2023-05-08T04:48:15;5.22;;;4.68;;
13163;SDS011;6647;53.688;10.746;2023-05-08T04:49:38;4.75;;;4.35;;
13163;SDS011;6647;53.688;10.746;2023-05-08T04:50:59;7.25;;;5.10;;
13163;SDS011;6647;53.688;10.746;2023-05-08T04:52:20;5.20;;;4.55;;
13163;SDS011;6647;53.688;10.746;2023-05-08T04:53:41;6.07;;;4.20;;
13163;SDS011;6647;53.688;10.746;2023-05-08T04:55:02;5.18;;;4.68;;
13163;SDS011;6647;53.688;10.746;2023-05-08T04:56:23;5.32;;;4.82;;
13163;SDS011;6647;53.688;10.746;2023-05-08T04:57:43;5.75;;;4.85;;
13163;SDS011;6647;53.688;10.746;2023-05-08T04:59:05;7.80;;;4.50;;
13163;SDS011;6647;53.688;10.746;2023-05-08T05:00:26;6.30;;;4.70;;
13163;SDS011;6647;53.688;10.746;2023-05-08T05:01:46;6.13;;;5.28;;
13163;SDS011;6647;53.688;10.746;2023-05-08T05:03:07;5.63;;;5.13;;
13163;SDS011;6647;53.688;10.746;2023-05-08T05:04:28;5.25;;;4.65;;
13163;SDS011;6647;53.688;10.746;2023-05-08T05:05:55;5.60;;;5.10;;
13163;SDS011;6647;53.688;10.746;2023-05-08T05:07:18;8.95;;;5.00;;
13163;SDS011;6647;53.688;10.746;2023-05-08T05:08:38;5.57;;;5.00;;
13163;SDS011;6647;53.688;10.746;2023-05-08T05:09:59;6.60;;;4.90;;
13163;SDS011;6647;53.688;10.746;2023-05-08T05:11:20;7.68;;;5.45;;
13163;SDS011;6647;53.688;10.746;2023-05-08T05:12:42;5.63;;;4.85;;
13163;SDS011;6647;53.688;10.746;2023-05-08T05:14:02;6.45;;;5.25;;
13163;SDS011;6647;53.688;10.746;2023-05-08T05:15:23;4.78;;;4.38;;
13163;SDS011;6647;53.688;10.746;2023-05-08T05:16:44;8.80;;;5.43;;
13163;SDS011;6647;53.688;10.746;2023-05-08T05:18:05;5.63;;;5.07;;
13163;SDS011;6647;53.688;10.746;2023-05-08T05:19:26;6.05;;;5.45;;
13163;SDS011;6647;53.688;10.746;2023-05-08T05:20:47;5.57;;;4.85;;
13163;SDS011;6647;53.688;10.746;2023-05-08T05:22:08;6.85;;;5.70;;
13163;SDS011;6647;53.688;10.746;2023-05-08T05:23:29;5.72;;;5.22;;
13163;SDS011;6647;53.688;10.746;2023-05-08T05:24:50;6.18;;;4.85;;
13163;SDS011;6647;53.688;10.746;2023-05-08T05:26:11;6.75;;;5.30;;
13163;SDS011;6647;53.688;10.746;2023-05-08T05:27:33;9.05;;;5.80;;
13163;SDS011;6647;53.688;10.746;2023-05-08T05:28:56;9.27;;;6.40;;
13163;SDS011;6647;53.688;10.746;2023-05-08T05:30:17;6.45;;;5.68;;
13163;SDS011;6647;53.688;10.746;2023-05-08T05:31:38;6.10;;;5.60;;
13163;SDS011;6647;53.688;10.746;2023-05-08T05:32:59;6.88;;;5.43;;
13163;SDS011;6647;53.688;10.746;2023-05-08T05:34:20;8.23;;;6.20;;
13163;SDS011;6647;53.688;10.746;2023-05-08T05:35:41;9.07;;;6.03;;
13163;SDS011;6647;53.688;10.746;2023-05-08T05:37:02;7.00;;;6.30;;
13163;SDS011;6647;53.688;10.746;2023-05-08T05:38:23;6.03;;;5.40;;
13163;SDS011;6647;53.688;10.746;2023-05-08T05:39:44;6.53;;;5.93;;
13163;SDS011;6647;53.688;10.746;2023-05-08T05:41:05;6.43;;;5.20;;
13163;SDS011;6647;53.688;10.746;2023-05-08T05:42:25;7.60;;;5.63;;
13163;SDS011;6647;53.688;10.746;2023-05-08T05:43:46;7.43;;;5.57;;
13163;SDS011;6647;53.688;10.746;2023-05-08T05:45:07;6.50;;;5.55;;
13163;SDS011;6647;53.688;10.746;2023-05-08T05:46:29;8.68;;;6.50;;
13163;SDS011;6647;53.688;10.746;2023-05-08T05:47:51;7.03;;;5.70;;
13163;SDS011;6647;53.688;10.746;2023-05-08T05:49:13;6.53;;;5.88;;
13163;SDS011;6647;53.688;10.746;2023-05-08T05:50:34;7.63;;;6.85;;
13163;SDS011;6647;53.688;10.746;2023-05-08T05:51:55;7.25;;;5.72;;
13163;SDS011;6647;53.688;10.746;2023-05-08T05:53:16;6.80;;;5.72;;
13163;SDS011;6647;53.688;10.746;2023-05-08T05:54:37;7.80;;;6.15;;
13163;SDS011;6647;53.688;10.746;2023-05-08T05:55:58;6.00;;;5.40;;
13163;SDS011;6647;53.688;10.746;2023-05-08T05:57:19;7.70;;;5.80;;
13163;SDS011;6647;53.688;10.746;2023-05-08T05:58:39;5.68;;;5.10;;
13163;SDS011;6647;53.688;10.746;2023-05-08T06:00:04;6.63;;;6.00;;
13163;SDS011;6647;53.688;10.746;2023-05-08T06:01:26;6.57;;;5.85;;
13163;SDS011;6647;53.688;10.746;2023-05-08T06:02:48;7.55;;;6.00;;
13163;SDS011;6647;53.688;10.746;2023-05-08T06:04:09;6.32;;;5.72;;
13163;SDS011;6647;53.688;10.746;2023-05-08T06:05:30;8.85;;;6.53;;
13163;SDS011;6647;53.688;10.746;2023-05-08T06:06:51;7.18;;;5.53;;
13163;SDS011;6647;53.688;10.746;2023-05-08T06:08:12;6.97;;;6.25;;
13163;SDS011;6647;53.688;10.746;2023-05-08T06:09:35;7.72;;;5.70;;
13163;SDS011;6647;53.688;10.746;2023-05-08T06:10:55;6.45;;;5.80;;
13163;SDS011;6647;53.688;10.746;2023-05-08T06:12:16;8.32;;;6.20;;
13163;SDS011;6647;53.688;10.746;2023-05-08T06:13:38;7.65;;;5.95;;
13163;SDS011;6647;53.688;10.746;2023-05-08T06:15:00;6.55;;;5.70;;
13163;SDS011;6647;53.688;10.746;2023-05-08T06:16:20;13.27;;;6.72;;
13163;SDS011;6647;53.688;10.746;2023-05-08T06:17:43;9.93;;;6.05;;
13163;SDS011;6647;53.688;10.746;2023-05-08T06:19:04;11.45;;;6.90;;
13163;SDS011;6647;53.688;10.746;2023-05-08T06:20:25;8.95;;;6.18;;
13163;SDS011;6647;53.688;10.746;2023-05-08T06:21:46;8.13;;;6.72;;
13163;SDS011;6647;53.688;10.746;2023-05-08T06:23:06;7.00;;;5.97;;
13163;SDS011;6647;53.688;10.746;2023-05-08T06:24:27;6.30;;;5.70;;
13163;SDS011;6647;53.688;10.746;2023-05-08T06:25:48;6.97;;;6.35;;
13163;SDS011;6647;53.688;10.746;2023-05-08T06:27:09;7.95;;;6.57;;
13163;SDS011;6647;53.688;10.746;2023-05-08T06:28:31;7.10;;;6.40;;
13163;SDS011;6647;53.688;10.746;2023-05-08T06:29:52;6.32;;;5.72;;
13163;SDS011;6647;53.688;10.746;2023-05-08T06:31:12;10.90;;;6.10;;
13163;SDS011;6647;53.688;10.746;2023-05-08T06:32:33;7.25;;;5.72;;
13163;SDS011;6647;53.688;10.746;2023-05-08T06:33:55;8.35;;;6.40;;
13163;SDS011;6647;53.688;10.746;2023-05-08T06:35:15;8.00;;;6.30;;
13163;SDS011;6647;53.688;10.746;2023-05-08T06:36:37;6.63;;;5.93;;
13163;SDS011;6647;53.688;10.746;2023-05-08T06:37:58;9.13;;;6.20;;
13163;SDS011;6647;53.688;10.746;2023-05-08T06:39:19;6.85;;;6.25;;
13163;SDS011;6647;53.688;10.746;2023-05-08T06:40:41;7.05;;;5.90;;
13163;SDS011;6647;53.688;10.746;2023-05-08T06:42:05;6.68;;;5.97;;
13163;SDS011;6647;53.688;10.746;2023-05-08T06:43:26;6.72;;;6.03;;
13163;SDS011;6647;53.688;10.746;2023-05-08T06:44:47;6.55;;;5.68;;
13163;SDS011;6647;53.688;10.746;2023-05-08T06:46:10;6.72;;;6.10;;
13163;SDS011;6647;53.688;10.746;2023-05-08T06:47:30;9.40;;;5.90;;
13163;SDS011;6647;53.688;10.746;2023-05-08T06:48:51;8.20;;;6.47;;
13163;SDS011;6647;53.688;10.746;2023-05-08T06:50:12;7.97;;;6.43;;
13163;SDS011;6647;53.688;10.746;2023-05-08T06:51:33;8.25;;;5.78;;
13163;SDS011;6647;53.688;10.746;2023-05-08T06:52:57;7.25;;;6.00;;
13163;SDS011;6647;53.688;10.746;2023-05-08T06:54:18;6.85;;;6.15;;
13163;SDS011;6647;53.688;10.746;2023-05-08T06:55:41;7.40;;;6.53;;
13163;SDS011;6647;53.688;10.746;2023-05-08T06:57:02;6.32;;;5.72;;
13163;SDS011;6647;53.688;10.746;2023-05-08T06:58:23;11.52;;;6.88;;
13163;SDS011;6647;53.688;10.746;2023-05-08T06:59:44;8.05;;;6.25;;
13163;SDS011;6647;53.688;10.746;2023-05-08T07:01:05;6.57;;;5.97;;
13163;SDS011;6647;53.688;10.746;2023-05-08T07:02:26;8.80;;;6.60;;
13163;SDS011;6647;53.688;10.746;2023-05-08T07:03:47;6.60;;;6.00;;
13163;SDS011;6647;53.688;10.746;2023-05-08T07:05:08;6.55;;;5.95;;
13163;SDS011;6647;53.688;10.746;2023-05-08T07:06:29;6.95;;;6.13;;
13163;SDS011;6647;53.688;10.746;2023-05-08T07:07:53;6.22;;;5.63;;
13163;SDS011;6647;53.688;10.746;2023-05-08T07:09:14;6.68;;;6.07;;
13163;SDS011;6647;53.688;10.746;2023-05-08T07:10:36;8.45;;;6.03;;
13163;SDS011;6647;53.688;10.746;2023-05-08T07:11:57;6.97;;;6.07;;
13163;SDS011;6647;53.688;10.746;2023-05-08T07:13:18;7.18;;;5.80;;
13163;SDS011;6647;53.688;10.746;2023-05-08T07:14:41;7.10;;;6.40;;
13163;SDS011;6647;53.688;10.746;2023-05-08T07:16:07;9.80;;;6.82;;
13163;SDS011;6647;53.688;10.746;2023-05-08T07:17:30;7.40;;;6.38;;
13163;SDS011;6647;53.688;10.746;2023-05-08T07:18:51;6.13;;;5.63;;
13163;SDS011;6647;53.688;10.746;2023-05-08T07:20:12;10.32;;;5.68;;
13163;SDS011;6647;53.688;10.746;2023-05-08T07:21:33;6.90;;;6.10;;
13163;SDS011;6647;53.688;10.746;2023-05-08T07:22:54;7.50;;;5.90;;
13163;SDS011;6647;53.688;10.746;2023-05-08T07:24:15;8.35;;;6.55;;
13163;SDS011;6647;53.688;10.746;2023-05-08T07:25:36;6.82;;;6.10;;
13163;SDS011;6647;53.688;10.746;2023-05-08T07:26:57;8.50;;;5.97;;
13163;SDS011;6647;53.688;10.746;2023-05-08T07:28:19;7.50;;;5.15;;
13163;SDS011;6647;53.688;10.746;2023-05-08T07:29:40;8.52;;;6.25;;
13163;SDS011;6647;53.688;10.746;2023-05-08T07:31:04;5.90;;;5.30;;
13163;SDS011;6647;53.688;10.746;2023-05-08T07:32:28;6.05;;;5.45;;
13163;SDS011;6647;53.688;10.746;2023-05-08T07:33:50;5.53;;;5.03;;
13163;SDS011;6647;53.688;10.746;2023-05-08T07:35:11;6.55;;;5.07;;
13163;SDS011;6647;53.688;10.746;2023-05-08T07:36:32;6.50;;;5.35;;
13163;SDS011;6647;53.688;10.746;2023-05-08T07:37:53;7.68;;;5.32;;
13163;SDS011;6647;53.688;10.746;2023-05-08T07:39:14;5.68;;;5.07;;
13163;SDS011;6647;53.688;10.746;2023-05-08T07:40:35;5.75;;;4.97;;
13163;SDS011;6647;53.688;10.746;2023-05-08T07:41:56;7.80;;;5.32;;
13163;SDS011;6647;53.688;10.746;2023-05-08T07:43:17;7.13;;;4.82;;
13163;SDS011;6647;53.688;10.746;2023-05-08T07:44:38;5.80;;;5.18;;
13163;SDS011;6647;53.688;10.746;2023-05-08T07:45:59;5.55;;;5.05;;
13163;SDS011;6647;53.688;10.746;2023-05-08T07:47:20;5.53;;;4.50;;
13163;SDS011;6647;53.688;10.746;2023-05-08T07:48:41;6.65;;;4.60;;
13163;SDS011;6647;53.688;10.746;2023-05-08T07:50:03;4.90;;;4.45;;
13163;SDS011;6647;53.688;10.746;2023-05-08T07:51:24;6.10;;;4.60;;
13163;SDS011;6647;53.688;10.746;2023-05-08T07:52:46;5.15;;;4.55;;
13163;SDS011;6647;53.688;10.746;2023-05-08T07:54:07;4.68;;;3.95;;
13163;SDS011;6647;53.688;10.746;2023-05-08T07:55:28;4.93;;;4.43;;
13163;SDS011;6647;53.688;10.746;2023-05-08T07:56:49;4.88;;;4.45;;
13163;SDS011;6647;53.688;10.746;2023-05-08T07:58:10;6.65;;;4.28;;
13163;SDS011;6647;53.688;10.746;2023-05-08T07:59:30;6.80;;;4.90;;
13163;SDS011;6647;53.688;10.746;2023-05-08T08:00:51;4.75;;;4.35;;
13163;SDS011;6647;53.688;10.746;2023-05-08T08:02:13;4.53;;;4.13;;
13163;SDS011;6647;53.688;10.746;2023-05-08T08:03:33;4.10;;;3.80;;
13163;SDS011;6647;53.688;10.746;2023-05-08T08:04:54;6.60;;;4.60;;
13163;SDS011;6647;53.688;10.746;2023-05-08T08:06:15;4.55;;;4.15;;
13163;SDS011;6647;53.688;10.746;2023-05-08T08:07:37;5.40;;;4.72;;
13163;SDS011;6647;53.688;10.746;2023-05-08T08:08:58;8.45;;;4.85;;
13163;SDS011;6647;53.688;10.746;2023-05-08T08:10:19;5.88;;;3.85;;
13163;SDS011;6647;53.688;10.746;2023-05-08T08:11:40;4.00;;;3.70;;
13163;SDS011;6647;53.688;10.746;2023-05-08T08:13:01;4.22;;;3.80;;
13163;SDS011;6647;53.688;10.746;2023-05-08T08:14:22;4.25;;;3.85;;
13163;SDS011;6647;53.688;10.746;2023-05-08T08:15:43;4.95;;;4.18;;
13163;SDS011;6647;53.688;10.746;2023-05-08T08:17:04;4.85;;;4.40;;
13163;SDS011;6647;53.688;10.746;2023-05-08T08:18:24;4.45;;;3.95;;
13163;SDS011;6647;53.688;10.746;2023-05-08T08:19:45;5.28;;;4.78;;
13163;SDS011;6647;53.688;10.746;2023-05-08T08:21:06;8.48;;;3.90;;
13163;SDS011;6647;53.688;10.746;2023-05-08T08:22:27;4.78;;;3.83;;
13163;SDS011;6647;53.688;10.746;2023-05-08T08:23:48;4.55;;;3.92;;
13163;SDS011;6647;53.688;10.746;2023-05-08T08:25:09;6.05;;;3.40;;
13163;SDS011;6647;53.688;10.746;2023-05-08T08:26:30;8.88;;;3.80;;
13163;SDS011;6647;53.688;10.746;2023-05-08T08:27:51;3.55;;;3.25;;
13163;SDS011;6647;53.688;10.746;2023-05-08T08:29:11;4.60;;;3.30;;
13163;SDS011;6647;53.688;10.746;2023-05-08T08:30:32;5.18;;;3.65;;
13163;SDS011;6647;53.688;10.746;2023-05-08T08:31:53;11.93;;;4.35;;
13163;SDS011;6647;53.688;10.746;2023-05-08T08:33:14;4.55;;;3.60;;
13163;SDS011;6647;53.688;10.746;2023-05-08T08:34:35;5.10;;;3.83;;
13163;SDS011;6647;53.688;10.746;2023-05-08T08:35:56;3.95;;;3.60;;
13163;SDS011;6647;53.688;10.746;2023-05-08T08:37:17;3.50;;;3.20;;
13163;SDS011;6647;53.688;10.746;2023-05-08T08:38:37;4.50;;;3.85;;
13163;SDS011;6647;53.688;10.746;2023-05-08T08:39:58;3.83;;;3.50;;
13163;SDS011;6647;53.688;10.746;2023-05-08T08:41:19;3.90;;;3.58;;